Mariner Of The Seas — C6FV9 — position and weather

sailwx.info

Track history (hours):
 
Tides and Currents Weather Stations Pressure Air Temp Water Temp Dewpoint Dewpoint Depression Visibility Wind Speed Wind Dir Waves Ship Positions

Mariner Of The Seas

Operator: Royal Caribbean Cruises Ltd

Last reported at 2017-Apr-28 09:45 UTC. Time now 2017-Apr-29 03:29 UTC.
Position N 31°19' E 121°45'.

Type: Passenger vessel. MMSI: 311493000.

Date/timePositionNaut miles runAvg speedWind from/ knotsBaromVisibWave heightAir tempDewpointWater temp
2017-Apr-28 09:45N 31°19' E 121°45'413.0
2017-Apr-28 09:26N 31°20' E 121°41'512.5
2017-Apr-28 09:00N 31°23' E 121°35'5 9.3
2017-Apr-28 08:31N 31°25' E 121°30'0 0.0
2017-Apr-27 22:28N 31°25' E 121°30'0 0.0
2017-Apr-27 21:58N 31°25' E 121°30'0 0.0
2017-Apr-27 21:22N 31°25' E 121°30'0 0.0
2017-Apr-27 20:55N 31°25' E 121°30'0 0.0
2017-Apr-27 20:28N 31°25' E 121°30'0 0.0
2017-Apr-27 19:58N 31°25' E 121°30'0 0.0
2017-Apr-27 19:28N 31°25' E 121°30'0 0.3
2017-Apr-27 19:00N 31°25' E 121°30'4 7.1
2017-Apr-27 18:30N 31°24' E 121°34'5 9.5
2017-Apr-27 18:00N 31°21' E 121°39'4 8.5
2017-Apr-27 17:30N 31°19' E 121°43'510.6
2017-Apr-27 17:00N 31°17' E 121°49'5 9.9
2017-Apr-27 16:30N 31°16' E 121°55'1310.8
2017-Apr-27 15:15N 31°11' E 122°10'  
2017-Apr-22 23:23N 31°25' E 121°30'3 6.2
2017-Apr-22 22:52N 31°24' E 121°34'410.2
2017-Apr-22 22:30N 31°22' E 121°38'  
2017-Apr-18 21:31N 31°25' E 121°30'0 4.2
2017-Apr-18 21:30N 31°25' E 121°30'3 7.0
2017-Apr-18 21:00N 31°24' E 121°34'5 8.7
2017-Apr-18 20:29N 31°21' E 121°39'9 9.6
2017-Apr-18 19:32N 31°17' E 121°48'  
Track history (hours):
 
Tides and Currents Weather Stations Pressure Air Temp Water Temp Dewpoint Dewpoint Depression Visibility Wind Speed Wind Dir Waves Ship Positions

Mariner Of The Seas

Operator: Royal Caribbean Cruises Ltd

Last reported at 2017-Apr-28 09:45 UTC. Time now 2017-Apr-29 03:29 UTC.
Position N 31°19' E 121°45'.

Type: Passenger vessel. MMSI: 311493000.

Date/timePositionNaut miles runAvg speedWind from/ knotsBaromVisibWave heightAir tempDewpointWater temp
2017-Apr-28 09:45N 31°19' E 121°45'413.0
2017-Apr-28 09:26N 31°20' E 121°41'512.5
2017-Apr-28 09:00N 31°23' E 121°35'5 9.3
2017-Apr-28 08:31N 31°25' E 121°30'0 0.0
2017-Apr-27 22:28N 31°25' E 121°30'0 0.0
2017-Apr-27 21:58N 31°25' E 121°30'0 0.0
2017-Apr-27 21:22N 31°25' E 121°30'0 0.0
2017-Apr-27 20:55N 31°25' E 121°30'0 0.0
2017-Apr-27 20:28N 31°25' E 121°30'0 0.0
2017-Apr-27 19:58N 31°25' E 121°30'0 0.0
2017-Apr-27 19:28N 31°25' E 121°30'0 0.3
2017-Apr-27 19:00N 31°25' E 121°30'4 7.1
2017-Apr-27 18:30N 31°24' E 121°34'5 9.5
2017-Apr-27 18:00N 31°21' E 121°39'4 8.5
2017-Apr-27 17:30N 31°19' E 121°43'510.6
2017-Apr-27 17:00N 31°17' E 121°49'5 9.9
2017-Apr-27 16:30N 31°16' E 121°55'1310.8
2017-Apr-27 15:15N 31°11' E 122°10'  
2017-Apr-22 23:23N 31°25' E 121°30'3 6.2
2017-Apr-22 22:52N 31°24' E 121°34'410.2
2017-Apr-22 22:30N 31°22' E 121°38'  
2017-Apr-18 21:31N 31°25' E 121°30'0 4.2
2017-Apr-18 21:30N 31°25' E 121°30'3 7.0
2017-Apr-18 21:00N 31°24' E 121°34'5 8.7
2017-Apr-18 20:29N 31°21' E 121°39'9 9.6
2017-Apr-18 19:32N 31°17' E 121°48'  

Dump ship's entire track history